Terminal Aerodrome Forecast
Issued by NWS

Home | Current Version | Previous Version | Text Only | Print | Product List | Glossary On
Versions: 1 2 3 4 5 6 7 8 9 10 11 12 13 14 15 16 17 18 19 20 21 22 23 24 25 26 27
000
FTUS43 KGRR 241244 AAA
TAFAZO
TAF AMD
KAZO 241244Z 2413/2512 07010KT 4SM BR VCSH OVC007
      TEMPO 2414/2416 2SM -TSRA BR OVC004CB
     FM241600 14010KT 4SM BR VCSH OVC008
     FM241900 17010KT 4SM -SHRA BR VCTS SCT008CB OVC015
     FM250100 25010KT 4SM -DZ BR OVC012
     FM251000 26014G26KT 4SM -SHSN BR OVC020=

USA.gov is the U.S. government's official web portal to all federal, state and local government web resources and services.